createdAt,value
2023-05-05T00:01:30.650Z,1.52
2023-05-05T00:03:57.268Z,1.73
2023-05-05T00:06:23.863Z,1.40
2023-05-05T00:08:50.731Z,1.55
2023-05-05T00:11:17.292Z,1.60
2023-05-05T00:13:43.832Z,1.60
2023-05-05T00:16:10.555Z,1.67
2023-05-05T00:18:40.177Z,1.57
2023-05-05T00:21:06.893Z,1.27
2023-05-05T00:23:33.491Z,1.35
2023-05-05T00:26:00.026Z,2.00
2023-05-05T00:28:29.056Z,1.02
2023-05-05T00:30:58.381Z,1.50
2023-05-05T00:33:25.806Z,1.30
2023-05-05T00:35:52.400Z,1.30
2023-05-05T00:38:18.968Z,1.50
2023-05-05T00:40:45.504Z,1.70
2023-05-05T00:43:13.026Z,1.57
2023-05-05T00:45:43.803Z,1.30
2023-05-05T00:48:10.481Z,1.67
2023-05-05T00:50:37.572Z,1.60
2023-05-05T00:53:06.680Z,1.30
2023-05-05T00:55:34.234Z,0.93
2023-05-05T00:58:02.990Z,1.52
2023-05-05T01:00:30.919Z,1.35
2023-05-05T01:02:58.027Z,1.35
2023-05-05T01:05:27.376Z,1.27
2023-05-05T01:08:09.542Z,1.17
2023-05-05T01:10:41.117Z,1.23
2023-05-05T01:13:16.886Z,1.88
2023-05-05T01:15:49.864Z,1.38
2023-05-05T01:18:28.566Z,1.25
2023-05-05T01:21:14.424Z,1.17
2023-05-05T01:23:49.767Z,1.10
2023-05-05T01:26:38.741Z,1.20
2023-05-05T01:29:51.176Z,1.15
2023-05-05T01:32:24.362Z,1.33
2023-05-05T01:35:01.596Z,1.33
2023-05-05T01:37:33.398Z,1.10
2023-05-05T01:40:05.115Z,0.90
2023-05-05T01:42:33.974Z,1.10
2023-05-05T01:45:06.237Z,1.17
2023-05-05T01:47:40.406Z,1.00
2023-05-05T01:50:08.648Z,1.10
2023-05-05T01:52:38.033Z,0.98
2023-05-05T01:55:06.684Z,0.93
2023-05-05T01:57:33.723Z,0.90
2023-05-05T02:00:04.641Z,1.13
2023-05-05T02:02:35.193Z,1.00
2023-05-05T02:05:03.382Z,0.98
2023-05-05T02:07:32.333Z,1.00
2023-05-05T02:10:00.649Z,1.15
2023-05-05T02:12:29.096Z,1.10
2023-05-05T02:15:01.617Z,1.27
2023-05-05T02:17:29.531Z,1.23
2023-05-05T02:19:59.018Z,1.00
2023-05-05T02:22:28.099Z,1.20
2023-05-05T02:24:55.101Z,1.13
2023-05-05T02:27:25.637Z,1.02
2023-05-05T02:29:58.717Z,1.05
2023-05-05T02:32:33.688Z,0.88
2023-05-05T02:35:10.934Z,1.05
2023-05-05T02:37:39.317Z,1.00
2023-05-05T02:40:12.739Z,1.20
2023-05-05T02:42:41.625Z,1.50
2023-05-05T02:45:12.923Z,1.20
2023-05-05T02:47:39.540Z,1.20
2023-05-05T02:50:08.193Z,1.20
2023-05-05T02:52:35.778Z,1.15
2023-05-05T02:55:04.159Z,1.10
2023-05-05T02:57:37.620Z,1.05
2023-05-05T03:00:10.353Z,1.33
2023-05-05T03:02:45.393Z,1.33
2023-05-05T03:05:21.529Z,1.48
2023-05-05T03:08:13.817Z,1.50
2023-05-05T03:10:56.762Z,1.27
2023-05-05T03:13:26.434Z,1.15
2023-05-05T03:15:54.804Z,1.13
2023-05-05T03:18:23.319Z,1.27
2023-05-05T03:20:51.140Z,1.45
2023-05-05T03:23:20.958Z,1.05
2023-05-05T03:25:49.824Z,1.08
2023-05-05T03:28:17.933Z,1.13
2023-05-05T03:30:44.664Z,0.80
2023-05-05T03:33:12.053Z,1.20
2023-05-05T03:35:38.602Z,1.17
2023-05-05T03:38:05.287Z,0.90
2023-05-05T03:40:42.900Z,1.13
2023-05-05T03:43:11.372Z,1.00
2023-05-05T03:45:38.061Z,0.80
2023-05-05T03:48:09.563Z,0.90
2023-05-05T03:50:36.664Z,0.70
2023-05-05T03:53:03.265Z,1.00
2023-05-05T03:55:29.849Z,0.70
2023-05-05T03:57:56.400Z,1.27
2023-05-05T04:00:23.035Z,1.00
2023-05-05T04:02:52.234Z,0.68
2023-05-05T04:05:19.907Z,0.80
2023-05-05T04:07:46.587Z,1.02
2023-05-05T04:10:13.187Z,0.75
2023-05-05T04:12:39.770Z,0.95
2023-05-05T04:15:06.956Z,1.23
2023-05-05T04:17:33.545Z,1.23
2023-05-05T04:20:00.338Z,1.00
2023-05-05T04:22:26.946Z,0.98
2023-05-05T04:24:53.629Z,0.85
2023-05-05T04:27:20.173Z,0.73
2023-05-05T04:29:51.585Z,1.00
2023-05-05T04:32:18.175Z,0.65
2023-05-05T04:34:44.802Z,0.80
2023-05-05T04:37:16.207Z,0.88
2023-05-05T04:39:44.952Z,0.65
2023-05-05T04:42:11.510Z,0.70
2023-05-05T04:44:38.325Z,0.63
2023-05-05T04:47:04.998Z,0.68
2023-05-05T04:49:32.107Z,1.10
2023-05-05T04:51:58.749Z,0.98
2023-05-05T04:54:25.664Z,0.87
2023-05-05T04:56:54.721Z,0.85
2023-05-05T04:59:21.347Z,0.82
2023-05-05T05:01:47.955Z,0.60
2023-05-05T05:04:18.485Z,0.88
2023-05-05T05:06:46.149Z,0.70
2023-05-05T05:09:13.279Z,0.70
2023-05-05T05:11:40.656Z,0.68
2023-05-05T05:14:07.303Z,1.10
2023-05-05T05:16:33.954Z,0.73
2023-05-05T05:19:01.796Z,0.80
2023-05-05T05:21:28.705Z,0.93
2023-05-05T05:23:55.392Z,0.90
2023-05-05T05:26:22.250Z,0.82
2023-05-05T05:28:48.972Z,0.80
2023-05-05T05:31:18.072Z,1.00
2023-05-05T05:33:44.696Z,1.30
2023-05-05T05:36:11.340Z,0.75
2023-05-05T05:38:37.889Z,1.05
2023-05-05T05:41:07.800Z,0.90
2023-05-05T05:43:34.393Z,0.97
2023-05-05T05:46:03.642Z,0.73
2023-05-05T05:48:30.341Z,0.80
2023-05-05T05:50:57.198Z,0.85
2023-05-05T05:53:23.800Z,0.70
2023-05-05T05:55:50.381Z,1.00
2023-05-05T05:58:18.455Z,0.90
2023-05-05T06:00:45.070Z,0.60
2023-05-05T06:03:12.121Z,1.10
2023-05-05T06:05:38.968Z,1.30
2023-05-05T06:08:05.559Z,0.90
2023-05-05T06:10:32.360Z,0.80
2023-05-05T06:12:59.233Z,0.80
2023-05-05T06:15:26.035Z,0.80
2023-05-05T06:17:52.709Z,0.95
2023-05-05T06:20:21.794Z,0.83
2023-05-05T06:22:48.479Z,0.80
2023-05-05T06:25:15.025Z,1.02
2023-05-05T06:27:41.678Z,0.98
2023-05-05T06:30:09.752Z,0.85
2023-05-05T06:32:36.540Z,1.10
2023-05-05T06:35:03.321Z,0.80
2023-05-05T06:37:32.270Z,0.80
2023-05-05T06:39:58.849Z,0.73
2023-05-05T06:42:25.421Z,1.13
2023-05-05T06:44:52.032Z,0.90
2023-05-05T06:47:18.584Z,0.85
2023-05-05T06:49:45.145Z,1.17
2023-05-05T06:52:11.914Z,1.10
2023-05-05T06:54:38.521Z,1.00
2023-05-05T06:57:05.132Z,1.10
2023-05-05T06:59:32.533Z,2.10
2023-05-05T07:01:59.607Z,2.30
2023-05-05T07:04:26.926Z,1.70
2023-05-05T07:06:55.267Z,2.15
2023-05-05T07:09:21.975Z,1.97
2023-05-05T07:11:48.564Z,1.77
2023-05-05T07:14:17.477Z,4.10
2023-05-05T07:16:44.064Z,5.00
2023-05-05T07:19:10.716Z,3.05
2023-05-05T07:21:37.279Z,5.43
2023-05-05T07:24:06.544Z,3.53
2023-05-05T07:26:33.279Z,3.70
2023-05-05T07:28:59.876Z,2.83
2023-05-05T07:31:26.788Z,2.13
2023-05-05T07:33:53.587Z,1.80
2023-05-05T07:36:20.504Z,2.47
2023-05-05T07:38:47.066Z,1.90
2023-05-05T07:41:15.960Z,2.50
2023-05-05T07:43:44.488Z,2.00
2023-05-05T07:46:12.064Z,2.80
2023-05-05T07:48:41.630Z,2.40
2023-05-05T07:51:10.950Z,2.20
2023-05-05T07:53:37.586Z,2.38
2023-05-05T07:56:04.290Z,1.77
2023-05-05T07:58:30.962Z,2.47
2023-05-05T08:01:01.394Z,2.38
2023-05-05T08:03:28.165Z,2.30
2023-05-05T08:05:55.581Z,3.83
2023-05-05T08:08:25.081Z,3.30
2023-05-05T08:10:53.214Z,2.50
2023-05-05T08:13:20.271Z,2.08
2023-05-05T08:15:47.038Z,2.17
2023-05-05T08:18:14.638Z,2.10
2023-05-05T08:20:41.323Z,1.85
2023-05-05T08:23:07.935Z,2.17
2023-05-05T08:25:34.532Z,1.70
2023-05-05T08:28:01.184Z,2.00
2023-05-05T08:30:27.891Z,1.75
2023-05-05T08:32:57.197Z,1.80
2023-05-05T08:35:26.208Z,2.03
2023-05-05T08:37:52.855Z,1.83
2023-05-05T08:40:26.452Z,1.60
2023-05-05T08:42:53.034Z,2.10
2023-05-05T08:45:21.815Z,2.20
2023-05-05T08:47:48.453Z,1.87
2023-05-05T08:50:18.177Z,2.10
2023-05-05T08:52:47.641Z,2.13
2023-05-05T08:55:26.777Z,1.92
2023-05-05T08:57:58.011Z,1.60
2023-05-05T09:00:26.515Z,2.17
2023-05-05T09:02:56.412Z,1.27
2023-05-05T09:05:23.357Z,1.70
2023-05-05T09:07:50.726Z,2.17
2023-05-05T09:10:17.779Z,2.25
2023-05-05T09:12:44.671Z,2.10
2023-05-05T09:15:15.311Z,2.55
2023-05-05T09:17:42.498Z,2.47
2023-05-05T09:20:10.387Z,1.83
2023-05-05T09:22:41.200Z,1.85
2023-05-05T09:25:12.165Z,1.47
2023-05-05T09:27:41.368Z,1.40
2023-05-05T09:30:09.794Z,1.48
2023-05-05T09:32:48.285Z,1.67
2023-05-05T09:35:16.327Z,1.70
2023-05-05T09:37:45.875Z,1.67
2023-05-05T09:40:19.310Z,1.92
2023-05-05T09:42:46.761Z,1.20
2023-05-05T09:45:19.140Z,1.50
2023-05-05T09:47:49.184Z,1.88
2023-05-05T09:50:19.352Z,1.90
2023-05-05T09:53:06.530Z,1.73
2023-05-05T09:55:33.167Z,1.48
2023-05-05T09:58:30.859Z,1.80
2023-05-05T10:00:58.707Z,1.77
2023-05-05T10:03:26.101Z,1.70
2023-05-05T10:05:57.724Z,1.75
2023-05-05T10:08:31.645Z,1.60
2023-05-05T10:11:04.113Z,1.67
2023-05-05T10:13:35.949Z,2.40
2023-05-05T10:16:06.906Z,2.33
2023-05-05T10:18:34.020Z,2.70
2023-05-05T10:21:03.402Z,3.05
2023-05-05T10:23:49.597Z,6.72
2023-05-05T10:26:19.287Z,3.67
2023-05-05T10:28:56.440Z,2.03
2023-05-05T10:31:49.997Z,2.17
2023-05-05T10:34:45.814Z,2.38
2023-05-05T10:37:13.201Z,1.45
2023-05-05T10:39:39.902Z,1.83
2023-05-05T10:42:06.930Z,2.10
2023-05-05T10:44:34.090Z,1.98
2023-05-05T10:47:01.946Z,1.92
2023-05-05T10:49:39.802Z,2.30
2023-05-05T10:52:18.277Z,2.67
2023-05-05T10:54:57.694Z,1.67
2023-05-05T10:57:27.026Z,2.55
2023-05-05T10:59:56.596Z,3.22
2023-05-05T11:02:24.314Z,4.05
2023-05-05T11:05:22.618Z,2.47
2023-05-05T11:07:51.442Z,2.77
2023-05-05T11:10:23.771Z,2.95
2023-05-05T11:13:00.177Z,2.35
2023-05-05T11:15:30.304Z,2.75
2023-05-05T11:18:08.178Z,2.22
2023-05-05T11:20:39.790Z,2.40
2023-05-05T11:23:06.652Z,2.25
2023-05-05T11:25:40.742Z,2.55
2023-05-05T11:28:11.165Z,2.63
2023-05-05T11:30:56.369Z,3.50
2023-05-05T11:33:26.950Z,3.30
2023-05-05T11:35:59.322Z,2.63
2023-05-05T11:39:03.765Z,2.65
2023-05-05T11:41:33.258Z,3.10
2023-05-05T11:44:16.930Z,2.25
2023-05-05T11:46:52.821Z,2.30
2023-05-05T11:49:33.069Z,1.92
2023-05-05T11:52:03.691Z,2.47
2023-05-05T11:54:30.992Z,2.70
2023-05-05T11:57:05.042Z,2.50
2023-05-05T11:59:32.444Z,2.70
2023-05-05T12:01:59.557Z,2.25
2023-05-05T12:04:26.472Z,2.25
2023-05-05T12:06:55.391Z,2.55
2023-05-05T12:09:23.031Z,2.15
2023-05-05T12:11:58.319Z,2.07
2023-05-05T12:14:25.746Z,2.33
2023-05-05T12:17:03.517Z,2.58
2023-05-05T12:19:33.410Z,2.65
2023-05-05T12:22:01.489Z,2.33
2023-05-05T12:24:28.469Z,2.40
2023-05-05T12:26:55.062Z,2.25
2023-05-05T12:29:29.235Z,2.55
2023-05-05T12:31:56.065Z,1.83
2023-05-05T12:34:26.400Z,2.30
2023-05-05T12:36:53.316Z,2.70
2023-05-05T12:39:19.907Z,2.20
2023-05-05T12:41:49.674Z,2.15
2023-05-05T12:44:16.635Z,2.30
2023-05-05T12:46:47.507Z,2.83
2023-05-05T12:49:14.575Z,2.30
2023-05-05T12:51:54.174Z,2.90
2023-05-05T12:54:20.762Z,4.07
2023-05-05T12:56:50.256Z,3.17
2023-05-05T12:59:22.679Z,3.20
2023-05-05T13:01:57.044Z,3.10
2023-05-05T13:04:27.974Z,2.63
2023-05-05T13:07:14.351Z,2.47
2023-05-05T13:09:43.281Z,2.47
2023-05-05T13:12:12.212Z,2.53
2023-05-05T13:14:39.942Z,2.77
2023-05-05T13:17:09.230Z,2.58
2023-05-05T13:19:41.710Z,3.15
2023-05-05T13:22:09.990Z,2.15
2023-05-05T13:24:49.743Z,2.67
2023-05-05T13:27:18.019Z,2.00
2023-05-05T13:29:44.587Z,2.10
2023-05-05T13:32:11.227Z,2.53
2023-05-05T13:34:39.211Z,2.30
2023-05-05T13:37:06.165Z,2.38
2023-05-05T13:39:32.842Z,3.10
2023-05-05T13:41:59.477Z,2.72
2023-05-05T13:44:26.086Z,2.25
2023-05-05T13:46:52.787Z,2.25
2023-05-05T13:49:20.199Z,2.38
2023-05-05T13:51:47.237Z,2.17
2023-05-05T13:54:14.035Z,2.65
2023-05-05T13:56:40.789Z,2.28
2023-05-05T13:59:07.638Z,3.03
2023-05-05T14:01:34.291Z,2.67
2023-05-05T14:04:02.911Z,3.10
2023-05-05T14:06:31.318Z,3.08
2023-05-05T14:08:57.957Z,2.60
2023-05-05T14:11:24.599Z,2.55
2023-05-05T14:13:52.085Z,3.75
2023-05-05T14:16:21.407Z,2.70
2023-05-05T14:18:48.017Z,3.25
2023-05-05T14:21:14.775Z,3.70
2023-05-05T14:23:41.387Z,2.90
2023-05-05T14:26:09.103Z,3.20
2023-05-05T14:28:38.116Z,3.20
2023-05-05T14:31:04.896Z,2.53
2023-05-05T14:33:31.482Z,2.70
2023-05-05T14:35:58.178Z,2.67
2023-05-05T14:38:24.871Z,2.75
2023-05-05T14:40:53.854Z,3.17
2023-05-05T14:43:20.764Z,2.78
2023-05-05T14:45:47.467Z,2.53
2023-05-05T14:48:16.709Z,2.97
2023-05-05T14:50:43.373Z,2.60
2023-05-05T14:53:10.034Z,2.93
2023-05-05T14:55:37.228Z,2.40
2023-05-05T14:58:06.039Z,2.85
2023-05-05T15:00:32.687Z,2.90
2023-05-05T15:02:59.351Z,2.92
2023-05-05T15:05:26.050Z,2.50
2023-05-05T15:07:52.659Z,2.60
2023-05-05T15:10:21.233Z,2.83
2023-05-05T15:12:48.668Z,2.92
2023-05-05T15:15:18.772Z,3.10
2023-05-05T15:17:45.537Z,3.20
2023-05-05T15:20:12.495Z,2.67
2023-05-05T15:22:39.040Z,2.40
2023-05-05T15:25:09.581Z,2.58
2023-05-05T15:27:38.002Z,3.00
2023-05-05T15:30:06.161Z,2.37
2023-05-05T15:32:32.828Z,3.00
2023-05-05T15:34:59.412Z,2.70
2023-05-05T15:37:28.334Z,2.50
2023-05-05T15:39:58.481Z,3.10
2023-05-05T15:42:25.134Z,2.50
2023-05-05T15:44:55.163Z,2.50
2023-05-05T15:47:24.038Z,2.20
2023-05-05T15:49:50.695Z,2.47
2023-05-05T15:52:17.360Z,2.45
2023-05-05T15:54:44.065Z,2.50
2023-05-05T15:57:10.728Z,2.67
2023-05-05T15:59:37.295Z,2.22
2023-05-05T16:02:03.904Z,2.53
2023-05-05T16:04:30.652Z,2.42
2023-05-05T16:06:58.097Z,3.00
2023-05-05T16:09:24.746Z,2.58
2023-05-05T16:11:54.390Z,2.60
2023-05-05T16:14:21.204Z,2.83
2023-05-05T16:16:47.975Z,3.00
2023-05-05T16:19:14.636Z,3.10
2023-05-05T16:21:41.301Z,3.55
2023-05-05T16:24:07.993Z,2.78
2023-05-05T16:26:35.923Z,2.80
2023-05-05T16:29:02.512Z,3.15
2023-05-05T16:31:29.156Z,3.30
2023-05-05T16:33:55.829Z,8.38
2023-05-05T16:36:22.443Z,4.00
2023-05-05T16:38:49.744Z,5.50
2023-05-05T16:41:16.326Z,5.40
2023-05-05T16:43:42.952Z,3.73
2023-05-05T16:46:09.770Z,4.22
2023-05-05T16:48:36.399Z,3.63
2023-05-05T16:51:03.100Z,3.50
2023-05-05T16:53:29.884Z,2.80
2023-05-05T16:55:56.489Z,2.83
2023-05-05T16:58:23.715Z,3.10
2023-05-05T17:00:51.119Z,3.05
2023-05-05T17:03:19.031Z,2.65
2023-05-05T17:05:49.649Z,3.10
2023-05-05T17:08:19.214Z,2.43
2023-05-05T17:10:46.686Z,3.10
2023-05-05T17:13:14.423Z,3.42
2023-05-05T17:15:41.572Z,2.53
2023-05-05T17:18:08.482Z,3.17
2023-05-05T17:20:37.670Z,3.67
2023-05-05T17:23:05.000Z,3.30
2023-05-05T17:25:31.857Z,3.20
2023-05-05T17:27:58.467Z,3.10
2023-05-05T17:30:25.282Z,3.22
2023-05-05T17:32:52.108Z,3.80
2023-05-05T17:35:18.976Z,2.55
2023-05-05T17:37:45.745Z,3.20
2023-05-05T17:40:12.621Z,2.95
2023-05-05T17:42:39.251Z,3.00
2023-05-05T17:45:06.701Z,2.63
2023-05-05T17:47:33.466Z,2.97
2023-05-05T17:50:00.184Z,3.10
2023-05-05T17:52:27.067Z,2.83
2023-05-05T17:54:53.626Z,3.13
2023-05-05T17:57:22.952Z,10.07
2023-05-05T17:59:50.420Z,5.63
2023-05-05T18:02:17.124Z,3.05
2023-05-05T18:04:43.830Z,3.92
2023-05-05T18:07:12.282Z,4.10
2023-05-05T18:09:41.569Z,2.97
2023-05-05T18:12:08.170Z,2.90
2023-05-05T18:14:34.768Z,2.97
2023-05-05T18:17:01.396Z,2.97
2023-05-05T18:19:30.653Z,2.60
2023-05-05T18:22:00.177Z,2.97
2023-05-05T18:24:28.186Z,2.80
2023-05-05T18:26:54.821Z,2.60
2023-05-05T18:29:22.187Z,2.97
2023-05-05T18:31:51.977Z,2.83
2023-05-05T18:34:21.597Z,2.60
2023-05-05T18:36:51.063Z,2.97
2023-05-05T18:39:17.934Z,2.53
2023-05-05T18:41:44.633Z,2.58
2023-05-05T18:44:11.522Z,2.47
2023-05-05T18:46:38.127Z,2.70
2023-05-05T18:49:04.820Z,2.30
2023-05-05T18:51:32.240Z,2.20
2023-05-05T18:54:00.128Z,1.80
2023-05-05T18:56:27.157Z,2.28
2023-05-05T18:58:53.837Z,2.57
2023-05-05T19:01:21.002Z,2.28
2023-05-05T19:03:48.143Z,1.92
2023-05-05T19:06:15.032Z,2.10
2023-05-05T19:08:42.495Z,3.15
2023-05-05T19:11:09.340Z,2.10
2023-05-05T19:13:35.998Z,2.45
2023-05-05T19:16:02.712Z,2.00
2023-05-05T19:18:29.464Z,2.00
2023-05-05T19:20:56.120Z,2.30
2023-05-05T19:23:22.783Z,1.90
2023-05-05T19:25:52.776Z,2.13
2023-05-05T19:28:19.667Z,2.20
2023-05-05T19:30:48.565Z,2.03
2023-05-05T19:33:16.199Z,2.17
2023-05-05T19:35:43.235Z,2.00
2023-05-05T19:38:10.534Z,2.40
2023-05-05T19:40:38.248Z,2.00
2023-05-05T19:43:05.069Z,2.05
2023-05-05T19:45:31.953Z,3.83
2023-05-05T19:47:58.702Z,5.57
2023-05-05T19:50:26.782Z,4.97
2023-05-05T19:52:56.784Z,3.47
2023-05-05T19:55:23.547Z,3.30
2023-05-05T19:57:50.097Z,2.42
2023-05-05T20:00:17.330Z,2.97
2023-05-05T20:02:45.372Z,4.07
2023-05-05T20:05:16.151Z,11.90
2023-05-05T20:07:43.633Z,14.35
2023-05-05T20:10:10.675Z,13.43
2023-05-05T20:12:37.617Z,8.77
2023-05-05T20:15:04.647Z,7.47
2023-05-05T20:17:31.257Z,4.57
2023-05-05T20:19:58.118Z,3.53
2023-05-05T20:22:26.603Z,2.92
2023-05-05T20:24:55.361Z,3.70
2023-05-05T20:27:28.664Z,5.00
2023-05-05T20:29:55.439Z,6.32
2023-05-05T20:32:22.024Z,7.65
2023-05-05T20:34:51.989Z,8.15
2023-05-05T20:37:21.885Z,6.63
2023-05-05T20:39:49.113Z,5.05
2023-05-05T20:42:15.716Z,3.97
2023-05-05T20:44:42.294Z,4.20
2023-05-05T20:47:08.965Z,4.60
2023-05-05T20:49:35.759Z,5.17
2023-05-05T20:52:04.920Z,4.63
2023-05-05T20:54:34.703Z,4.03
2023-05-05T20:57:02.854Z,4.50
2023-05-05T20:59:29.522Z,4.38
2023-05-05T21:01:59.106Z,4.57
2023-05-05T21:04:25.986Z,5.20
2023-05-05T21:06:52.606Z,6.30
2023-05-05T21:09:21.406Z,7.28
2023-05-05T21:11:48.816Z,6.38
2023-05-05T21:14:17.595Z,5.50
2023-05-05T21:16:44.210Z,5.18
2023-05-05T21:19:10.870Z,5.68
2023-05-05T21:21:37.482Z,5.75
2023-05-05T21:24:08.092Z,5.35
2023-05-05T21:26:34.838Z,5.10
2023-05-05T21:29:03.963Z,4.13
2023-05-05T21:31:30.628Z,4.20
2023-05-05T21:33:57.219Z,3.65
2023-05-05T21:36:24.817Z,3.15
2023-05-05T21:38:51.578Z,2.63
2023-05-05T21:41:18.271Z,2.50
2023-05-05T21:43:44.881Z,4.05
2023-05-05T21:46:11.615Z,5.35
2023-05-05T21:48:40.012Z,5.40
2023-05-05T21:51:06.831Z,4.40
2023-05-05T21:53:37.784Z,6.22
2023-05-05T21:56:06.744Z,6.43
2023-05-05T21:58:33.332Z,4.75
2023-05-05T22:01:00.259Z,4.68
2023-05-05T22:03:27.125Z,6.17
2023-05-05T22:05:53.843Z,6.40
2023-05-05T22:08:20.584Z,5.35
2023-05-05T22:10:49.353Z,4.30
2023-05-05T22:13:15.960Z,3.47
2023-05-05T22:15:47.283Z,3.50
2023-05-05T22:18:14.826Z,3.30
2023-05-05T22:20:41.548Z,5.38
2023-05-05T22:23:10.333Z,7.03
2023-05-05T22:25:39.389Z,8.07
2023-05-05T22:28:08.112Z,7.53
2023-05-05T22:30:34.742Z,8.52
2023-05-05T22:33:01.444Z,11.23
2023-05-05T22:35:28.077Z,13.27
2023-05-05T22:37:56.900Z,10.07
2023-05-05T22:40:25.751Z,7.97
2023-05-05T22:42:54.559Z,5.72
2023-05-05T22:45:22.303Z,4.65
2023-05-05T22:47:51.694Z,3.55
2023-05-05T22:50:18.892Z,4.38
2023-05-05T22:52:45.503Z,4.10
2023-05-05T22:55:15.361Z,8.35
2023-05-05T22:57:44.393Z,22.48
2023-05-05T23:00:11.220Z,17.05
2023-05-05T23:02:38.520Z,10.32
2023-05-05T23:05:05.512Z,5.47
2023-05-05T23:07:32.333Z,4.22
2023-05-05T23:10:01.224Z,3.67
2023-05-05T23:12:27.856Z,3.50
2023-05-05T23:14:54.462Z,2.97
2023-05-05T23:17:21.180Z,2.77
2023-05-05T23:19:51.056Z,2.83
2023-05-05T23:22:17.665Z,2.97
2023-05-05T23:24:44.217Z,2.40
2023-05-05T23:27:12.651Z,2.63
2023-05-05T23:29:39.368Z,2.40
2023-05-05T23:32:06.510Z,2.35
2023-05-05T23:34:33.068Z,2.17
2023-05-05T23:36:59.641Z,2.25
2023-05-05T23:39:26.359Z,1.90
2023-05-05T23:41:55.029Z,2.30
2023-05-05T23:44:21.576Z,2.30
2023-05-05T23:46:50.621Z,2.10
2023-05-05T23:49:17.194Z,2.00
2023-05-05T23:51:43.750Z,2.17
2023-05-05T23:54:10.345Z,2.00
2023-05-05T23:56:40.811Z,2.10
2023-05-05T23:59:07.390Z,1.83
